createdAt,value
2018-03-08T00:01:11.634Z,49.60
2018-03-08T00:03:39.901Z,50.73
2018-03-08T00:06:08.586Z,52.43
2018-03-08T00:08:36.967Z,51.23
2018-03-08T00:11:05.673Z,53.47
2018-03-08T00:13:33.979Z,53.10
2018-03-08T00:16:02.386Z,56.50
2018-03-08T00:18:30.944Z,58.53
2018-03-08T00:20:59.248Z,56.83
2018-03-08T00:23:27.683Z,61.20
2018-03-08T00:25:56.153Z,54.70
2018-03-08T00:28:24.470Z,55.60
2018-03-08T00:30:52.792Z,56.47
2018-03-08T00:33:21.541Z,56.40
2018-03-08T00:35:49.888Z,57.20
2018-03-08T00:38:18.133Z,58.60
2018-03-08T00:40:46.366Z,59.43
2018-03-08T00:43:14.595Z,55.80
2018-03-08T00:45:43.167Z,53.60
2018-03-08T00:48:11.767Z,53.83
2018-03-08T00:50:40.226Z,52.03
2018-03-08T00:53:08.720Z,54.77
2018-03-08T00:55:37.363Z,53.60
2018-03-08T00:58:05.780Z,47.30
2018-03-08T01:00:34.025Z,54.60
2018-03-08T01:03:02.368Z,47.93
2018-03-08T01:05:30.926Z,51.33
2018-03-08T01:07:59.106Z,46.30
2018-03-08T01:10:28.144Z,45.63
2018-03-08T01:12:56.469Z,47.57
2018-03-08T01:15:24.848Z,44.50
2018-03-08T01:17:53.002Z,44.03
2018-03-08T01:20:21.472Z,46.10
2018-03-08T01:22:50.006Z,41.00
2018-03-08T01:25:18.204Z,43.13
2018-03-08T01:27:46.730Z,42.87
2018-03-08T01:30:15.018Z,41.33
2018-03-08T01:32:43.358Z,36.93
2018-03-08T01:35:11.586Z,39.03
2018-03-08T01:37:40.060Z,43.93
2018-03-08T01:40:08.503Z,41.13
2018-03-08T01:42:36.818Z,37.13
2018-03-08T01:45:05.444Z,39.13
2018-03-08T01:47:33.935Z,37.00
2018-03-08T01:50:02.201Z,30.27
2018-03-08T01:52:30.572Z,33.03
2018-03-08T01:54:59.284Z,32.87
2018-03-08T01:57:27.815Z,32.87
2018-03-08T01:59:56.103Z,34.70
2018-03-08T02:02:24.889Z,32.73
2018-03-08T02:04:53.370Z,34.13
2018-03-08T02:07:21.637Z,31.50
2018-03-08T02:09:50.140Z,27.47
2018-03-08T02:12:18.563Z,31.07
2018-03-08T02:14:46.932Z,25.70
2018-03-08T02:17:15.154Z,34.73
2018-03-08T02:19:44.003Z,26.33
2018-03-08T02:22:12.388Z,25.60
2018-03-08T02:24:40.617Z,25.83
2018-03-08T02:27:09.143Z,23.80
2018-03-08T02:29:37.394Z,26.20
2018-03-08T02:32:05.746Z,22.33
2018-03-08T02:34:33.893Z,23.57
2018-03-08T02:37:02.182Z,22.17
2018-03-08T02:39:30.403Z,23.03
2018-03-08T02:41:58.679Z,22.33
2018-03-08T02:44:27.172Z,23.90
2018-03-08T02:46:55.375Z,15.83
2018-03-08T02:49:23.918Z,18.33
2018-03-08T02:51:52.400Z,23.03
2018-03-08T02:54:20.842Z,14.97
2018-03-08T02:56:49.058Z,13.80
2018-03-08T02:59:17.461Z,16.23
2018-03-08T03:01:45.708Z,17.37
2018-03-08T03:04:13.876Z,13.93
2018-03-08T03:06:42.157Z,12.53
2018-03-08T03:09:10.512Z,14.27
2018-03-08T03:11:38.745Z,13.60
2018-03-08T03:14:07.039Z,14.03
2018-03-08T03:16:35.434Z,12.00
2018-03-08T03:19:03.818Z,16.73
2018-03-08T03:21:32.078Z,12.90
2018-03-08T03:24:00.870Z,15.83
2018-03-08T03:26:29.975Z,11.23
2018-03-08T03:28:58.215Z,17.73
2018-03-08T03:31:26.650Z,13.63
2018-03-08T03:33:55.096Z,18.97
2018-03-08T03:36:23.387Z,14.80
2018-03-08T03:38:52.323Z,16.40
2018-03-08T03:41:20.900Z,17.33
2018-03-08T03:43:49.354Z,17.50
2018-03-08T03:46:17.994Z,18.13
2018-03-08T03:48:46.620Z,15.23
2018-03-08T03:51:15.065Z,13.87
2018-03-08T03:53:43.671Z,13.53
2018-03-08T03:56:12.432Z,16.93
2018-03-08T03:58:40.656Z,13.13
2018-03-08T04:01:09.322Z,11.93
2018-03-08T04:03:37.616Z,13.73
2018-03-08T04:06:06.641Z,15.37
2018-03-08T04:08:34.774Z,13.23
2018-03-08T04:11:03.356Z,14.53
2018-03-08T04:13:32.357Z,15.93
2018-03-08T04:16:00.857Z,9.00
2018-03-08T04:18:29.256Z,12.17
2018-03-08T04:20:58.007Z,15.77
2018-03-08T04:23:26.515Z,14.17
2018-03-08T04:25:54.645Z,15.83
2018-03-08T04:28:23.248Z,13.53
2018-03-08T04:30:51.987Z,11.70
2018-03-08T04:33:20.835Z,8.17
2018-03-08T04:35:49.455Z,11.80
2018-03-08T04:38:17.746Z,10.37
2018-03-08T04:40:45.985Z,9.73
2018-03-08T04:43:14.185Z,12.60
2018-03-08T04:45:42.467Z,13.77
2018-03-08T04:48:13.200Z,11.50
2018-03-08T04:50:42.489Z,10.17
2018-03-08T04:53:12.586Z,9.47
2018-03-08T04:55:41.032Z,10.43
2018-03-08T04:58:09.530Z,9.77
2018-03-08T05:00:38.248Z,10.50
2018-03-08T05:03:06.885Z,8.73
2018-03-08T05:05:35.119Z,13.53
2018-03-08T05:08:03.944Z,9.73
2018-03-08T05:10:32.175Z,13.07
2018-03-08T05:13:00.694Z,11.90
2018-03-08T05:15:29.134Z,13.50
2018-03-08T05:17:57.326Z,15.70
2018-03-08T05:20:26.248Z,16.20
2018-03-08T05:22:55.210Z,12.37
2018-03-08T05:25:23.666Z,12.07
2018-03-08T05:27:52.878Z,8.53
2018-03-08T05:30:21.044Z,12.93
2018-03-08T05:32:49.164Z,12.93
2018-03-08T05:35:17.275Z,14.10
2018-03-08T05:37:46.440Z,12.63
2018-03-08T05:40:14.950Z,7.37
2018-03-08T05:42:43.080Z,7.20
2018-03-08T05:45:19.058Z,11.60
2018-03-08T05:47:49.132Z,7.17
2018-03-08T05:50:17.897Z,15.03
2018-03-08T05:52:46.505Z,10.93
2018-03-08T05:55:14.984Z,9.80
2018-03-08T05:57:43.599Z,11.60
2018-03-08T06:00:11.764Z,7.50
2018-03-08T06:02:40.101Z,7.50
2018-03-08T06:05:08.569Z,11.30
2018-03-08T06:07:42.083Z,9.60
2018-03-08T06:10:10.248Z,10.53
2018-03-08T06:12:38.362Z,12.43
2018-03-08T06:15:06.480Z,11.30
2018-03-08T06:17:34.555Z,9.80
2018-03-08T06:20:02.651Z,10.30
2018-03-08T06:22:30.761Z,10.57
2018-03-08T06:24:58.890Z,11.20
2018-03-08T06:27:26.990Z,10.17
2018-03-08T06:29:55.098Z,9.00
2018-03-08T06:32:23.207Z,12.03
2018-03-08T06:34:52.668Z,13.90
2018-03-08T06:37:21.653Z,11.33
2018-03-08T06:39:49.805Z,10.07
2018-03-08T06:42:18.196Z,10.87
2018-03-08T06:44:47.002Z,8.97
2018-03-08T06:47:15.701Z,11.07
2018-03-08T06:49:43.842Z,13.10
2018-03-08T06:52:12.629Z,13.90
2018-03-08T06:54:41.070Z,11.07
2018-03-08T06:57:10.304Z,14.50
2018-03-08T06:59:39.900Z,12.57
2018-03-08T07:02:08.007Z,15.40
2018-03-08T07:04:36.109Z,13.07
2018-03-08T07:07:04.214Z,9.07
2018-03-08T07:09:32.322Z,9.67
2018-03-08T07:12:00.431Z,10.50
2018-03-08T07:14:28.533Z,15.07
2018-03-08T07:16:56.687Z,13.13
2018-03-08T07:19:24.796Z,10.40
2018-03-08T07:21:52.923Z,10.97
2018-03-08T07:24:21.029Z,11.60
2018-03-08T07:26:49.163Z,13.03
2018-03-08T07:29:17.274Z,11.33
2018-03-08T07:31:45.380Z,13.93
2018-03-08T07:34:13.479Z,11.40
2018-03-08T07:36:41.582Z,13.00
2018-03-08T07:39:09.700Z,13.90
2018-03-08T07:41:37.816Z,9.83
2018-03-08T07:44:05.918Z,11.10
2018-03-08T07:46:34.028Z,14.90
2018-03-08T07:49:02.149Z,16.70
2018-03-08T07:51:30.259Z,13.63
2018-03-08T07:53:58.363Z,14.10
2018-03-08T07:56:26.468Z,13.40
2018-03-08T07:58:54.565Z,16.13
2018-03-08T08:01:22.686Z,14.47
2018-03-08T08:03:50.779Z,18.27
2018-03-08T08:09:27.856Z,18.33
2018-03-08T08:11:55.963Z,17.10
2018-03-08T08:14:24.055Z,14.37
2018-03-08T08:16:52.171Z,17.37
2018-03-08T08:19:20.263Z,11.27
2018-03-08T08:21:48.358Z,19.07
2018-03-08T08:24:16.475Z,15.63
2018-03-08T08:26:44.615Z,13.40
2018-03-08T08:29:12.690Z,13.73
2018-03-08T08:31:40.811Z,19.60
2018-03-08T08:34:08.927Z,14.40
2018-03-08T08:36:37.047Z,15.63
2018-03-08T08:39:05.322Z,13.17
2018-03-08T08:41:33.729Z,15.10
2018-03-08T08:44:01.842Z,17.33
2018-03-08T08:46:29.980Z,15.37
2018-03-08T08:48:58.080Z,14.23
2018-03-08T08:51:26.207Z,15.70
2018-03-08T08:53:54.308Z,16.20
2018-03-08T08:56:22.445Z,18.17
2018-03-08T08:58:50.583Z,16.53
2018-03-08T09:01:18.683Z,16.00
2018-03-08T09:03:46.782Z,19.90
2018-03-08T09:06:14.889Z,16.10
2018-03-08T09:08:42.982Z,15.10
2018-03-08T09:11:11.088Z,15.10
2018-03-08T09:13:39.193Z,15.57
2018-03-08T09:16:07.320Z,14.27
2018-03-08T09:18:35.434Z,17.23
2018-03-08T09:21:03.622Z,18.10
2018-03-08T09:23:31.660Z,15.67
2018-03-08T09:25:59.774Z,15.43
2018-03-08T09:28:27.890Z,16.73
2018-03-08T09:30:56.013Z,15.27
2018-03-08T09:33:24.145Z,19.47
2018-03-08T09:35:52.263Z,15.77
2018-03-08T09:38:20.360Z,14.70
2018-03-08T09:40:48.466Z,13.43
2018-03-08T09:43:16.589Z,15.67
2018-03-08T09:45:44.689Z,16.20
2018-03-08T09:48:12.810Z,14.20
2018-03-08T09:50:40.930Z,12.83
2018-03-08T09:53:09.218Z,13.00
2018-03-08T09:55:37.351Z,19.67
2018-03-08T09:58:05.467Z,12.80
2018-03-08T10:00:33.560Z,16.63
2018-03-08T10:03:01.664Z,15.83
2018-03-08T10:05:29.832Z,13.00
2018-03-08T10:07:57.941Z,12.07
2018-03-08T10:10:26.054Z,18.93
2018-03-08T10:12:54.212Z,15.73
2018-03-08T10:15:22.299Z,14.50
2018-03-08T10:17:50.412Z,13.07
2018-03-08T10:20:18.516Z,12.87
2018-03-08T10:22:46.697Z,14.60
2018-03-08T10:25:14.747Z,19.73
2018-03-08T10:27:42.852Z,12.40
2018-03-08T10:30:10.976Z,14.67
2018-03-08T10:32:39.105Z,12.37
2018-03-08T10:35:07.221Z,11.57
2018-03-08T10:37:35.367Z,12.07
2018-03-08T10:40:03.475Z,12.17
2018-03-08T10:44:59.712Z,8.70
2018-03-08T10:47:27.836Z,11.43
2018-03-08T10:49:55.967Z,8.27
2018-03-08T10:52:24.070Z,7.40
2018-03-08T10:54:52.187Z,9.03
2018-03-08T10:57:20.322Z,9.83
2018-03-08T10:59:48.447Z,7.90
2018-03-08T11:02:17.271Z,7.77
2018-03-08T11:04:50.933Z,11.80
2018-03-08T11:07:19.064Z,9.50
2018-03-08T11:09:50.293Z,8.13
2018-03-08T11:12:18.425Z,8.73
2018-03-08T11:14:46.550Z,9.63
2018-03-08T11:17:14.639Z,9.73
2018-03-08T11:19:42.767Z,6.57
2018-03-08T11:22:10.887Z,8.30
2018-03-08T11:24:39.006Z,6.17
2018-03-08T11:27:07.129Z,15.37
2018-03-08T11:29:35.256Z,6.13
2018-03-08T11:32:03.371Z,13.70
2018-03-08T11:34:31.456Z,8.53
2018-03-08T11:36:59.622Z,8.27
2018-03-08T11:39:27.703Z,7.50
2018-03-08T11:41:55.795Z,7.33
2018-03-08T11:44:23.934Z,7.77
2018-03-08T11:46:52.035Z,10.67
2018-03-08T11:49:21.086Z,9.40
2018-03-08T11:51:48.720Z,7.37
2018-03-08T11:54:16.844Z,5.40
2018-03-08T11:56:45.082Z,7.67
2018-03-08T11:59:13.271Z,7.93
2018-03-08T12:01:41.385Z,4.53
2018-03-08T12:04:09.506Z,4.30
2018-03-08T12:06:37.612Z,5.10
2018-03-08T12:09:05.724Z,8.17
2018-03-08T12:11:33.840Z,6.83
2018-03-08T12:14:01.941Z,8.13
2018-03-08T12:16:30.063Z,5.33
2018-03-08T12:18:58.164Z,6.57
2018-03-08T12:21:26.265Z,8.57
2018-03-08T12:23:54.358Z,3.07
2018-03-08T12:26:22.487Z,5.90
2018-03-08T12:28:50.609Z,4.83
2018-03-08T12:31:18.706Z,5.63
2018-03-08T12:33:46.803Z,8.60
2018-03-08T12:36:15.086Z,3.60
2018-03-08T12:38:43.199Z,5.07
2018-03-08T12:41:11.384Z,7.27
2018-03-08T12:43:42.637Z,4.70
2018-03-08T12:46:10.737Z,4.53
2018-03-08T12:48:38.884Z,3.27
2018-03-08T12:51:06.969Z,4.67
2018-03-08T12:53:35.095Z,4.57
2018-03-08T12:56:03.252Z,3.10
2018-03-08T12:58:31.295Z,2.93
2018-03-08T13:00:59.390Z,4.13
2018-03-08T13:03:27.492Z,7.67
2018-03-08T13:05:55.611Z,3.40
2018-03-08T13:08:23.717Z,6.40
2018-03-08T13:10:51.851Z,3.13
2018-03-08T13:13:20.290Z,6.40
2018-03-08T13:15:48.387Z,5.80
2018-03-08T13:18:16.494Z,4.07
2018-03-08T13:20:44.599Z,3.70
2018-03-08T13:23:12.707Z,5.10
2018-03-08T13:25:40.819Z,5.07
2018-03-08T13:28:08.931Z,7.47
2018-03-08T13:30:37.047Z,5.90
2018-03-08T13:33:05.143Z,7.53
2018-03-08T13:35:33.243Z,6.77
2018-03-08T13:38:01.477Z,7.80
2018-03-08T13:40:29.561Z,8.57
2018-03-08T13:42:57.678Z,9.27
2018-03-08T13:45:25.780Z,4.67
2018-03-08T13:47:53.922Z,3.70
2018-03-08T13:50:22.021Z,7.97
2018-03-08T13:52:50.144Z,6.43
2018-03-08T13:55:18.237Z,6.73
2018-03-08T13:57:46.366Z,3.00
2018-03-08T14:00:14.429Z,6.13
2018-03-08T14:02:42.534Z,6.30
2018-03-08T14:05:10.636Z,8.20
2018-03-08T14:07:38.738Z,4.10
2018-03-08T14:10:06.873Z,6.57
2018-03-08T14:12:35.005Z,4.17
2018-03-08T14:15:03.096Z,4.73
2018-03-08T14:17:31.220Z,3.87
2018-03-08T14:19:59.316Z,2.90
2018-03-08T14:22:27.429Z,7.77
2018-03-08T14:24:55.556Z,6.00
2018-03-08T14:27:23.652Z,5.93
2018-03-08T14:29:51.755Z,2.80
2018-03-08T14:32:19.869Z,5.50
2018-03-08T14:34:47.971Z,3.27
2018-03-08T14:37:16.098Z,5.27
2018-03-08T14:39:44.199Z,3.60
2018-03-08T14:42:12.306Z,5.37
2018-03-08T14:44:40.410Z,4.90
2018-03-08T14:47:08.525Z,4.23
2018-03-08T14:49:36.637Z,6.10
2018-03-08T14:52:04.749Z,5.20
2018-03-08T14:54:32.869Z,4.77
2018-03-08T14:57:01.002Z,2.37
2018-03-08T14:59:29.110Z,8.67
2018-03-08T15:01:57.230Z,5.20
2018-03-08T15:04:25.321Z,6.43
2018-03-08T15:06:53.441Z,2.70
2018-03-08T15:09:21.538Z,5.63
2018-03-08T15:11:49.640Z,6.00
2018-03-08T15:14:17.748Z,3.47
2018-03-08T15:16:45.858Z,4.47
2018-03-08T15:19:13.973Z,4.17
2018-03-08T15:21:42.980Z,9.23
2018-03-08T15:24:11.098Z,9.57
2018-03-08T15:26:39.223Z,5.47
2018-03-08T15:29:07.319Z,7.60
2018-03-08T15:31:35.481Z,4.33
2018-03-08T15:34:03.595Z,4.63
2018-03-08T15:36:31.712Z,6.40
2018-03-08T15:38:59.814Z,3.77
2018-03-08T15:41:27.900Z,2.93
2018-03-08T15:43:56.027Z,3.53
2018-03-08T15:46:24.152Z,4.43
2018-03-08T15:48:52.248Z,4.43
2018-03-08T15:51:20.371Z,2.33
2018-03-08T15:53:48.480Z,2.47
2018-03-08T15:56:16.592Z,5.23
2018-03-08T15:58:44.685Z,4.70
2018-03-08T16:01:12.792Z,2.77
2018-03-08T16:03:40.898Z,4.27
2018-03-08T16:06:12.699Z,6.07
2018-03-08T16:08:52.684Z,3.57
2018-03-08T16:11:20.793Z,1.93
2018-03-08T16:13:48.905Z,2.27
2018-03-08T16:16:17.029Z,4.03
2018-03-08T16:18:46.020Z,4.33
2018-03-08T16:21:14.143Z,3.70
2018-03-08T16:23:42.270Z,5.90
2018-03-08T16:26:10.357Z,3.90
2018-03-08T16:28:38.460Z,4.17
2018-03-08T16:31:06.570Z,4.43
2018-03-08T16:33:34.696Z,3.17
2018-03-08T16:36:02.854Z,3.50
2018-03-08T16:38:30.934Z,3.40
2018-03-08T16:40:59.044Z,2.27
2018-03-08T16:43:27.160Z,2.40
2018-03-08T16:45:55.276Z,1.80
2018-03-08T16:48:23.437Z,6.03
2018-03-08T16:50:51.510Z,3.70
2018-03-08T16:53:19.656Z,8.03
2018-03-08T16:55:47.729Z,4.83
2018-03-08T16:58:15.848Z,2.33
2018-03-08T17:00:43.965Z,3.50
2018-03-08T17:03:12.067Z,2.43
2018-03-08T17:05:40.192Z,6.07
2018-03-08T17:08:08.355Z,2.53
2018-03-08T17:10:36.448Z,4.63
2018-03-08T17:13:04.577Z,3.93
2018-03-08T17:15:32.725Z,3.57
2018-03-08T17:18:00.865Z,3.57
2018-03-08T17:20:28.968Z,3.77
2018-03-08T17:22:57.065Z,7.03
2018-03-08T17:25:25.185Z,4.03
2018-03-08T17:27:53.282Z,3.10
2018-03-08T17:30:21.394Z,3.53
2018-03-08T17:32:49.503Z,2.37
2018-03-08T17:35:17.622Z,4.90
2018-03-08T17:37:45.729Z,6.37
2018-03-08T17:40:13.821Z,2.20
2018-03-08T17:42:41.931Z,5.07
2018-03-08T17:45:10.039Z,3.33
2018-03-08T17:47:38.145Z,4.83
2018-03-08T17:50:06.264Z,2.73
2018-03-08T17:52:35.876Z,2.10
2018-03-08T17:55:04.408Z,4.10
2018-03-08T17:57:34.212Z,5.37
2018-03-08T18:00:03.184Z,5.73
2018-03-08T18:02:32.315Z,5.43
2018-03-08T18:05:00.794Z,4.20
2018-03-08T18:07:29.327Z,4.03
2018-03-08T18:09:57.941Z,5.90
2018-03-08T18:12:26.204Z,3.40
2018-03-08T18:14:54.865Z,3.03
2018-03-08T18:17:23.600Z,2.40
2018-03-08T18:19:52.069Z,2.60
2018-03-08T18:22:20.726Z,4.33
2018-03-08T18:24:48.981Z,4.23
2018-03-08T18:27:17.375Z,7.50
2018-03-08T18:29:45.793Z,5.70
2018-03-08T18:32:14.569Z,5.10
2018-03-08T18:34:43.004Z,6.10
2018-03-08T18:37:11.679Z,5.67
2018-03-08T18:39:40.281Z,3.97
2018-03-08T18:42:08.829Z,4.03
2018-03-08T18:44:37.184Z,3.47
2018-03-08T18:47:06.503Z,7.30
2018-03-08T18:49:36.083Z,4.60
2018-03-08T18:52:04.727Z,7.97
2018-03-08T18:54:33.200Z,8.90
2018-03-08T18:57:01.547Z,4.30
2018-03-08T18:59:30.243Z,14.70
2018-03-08T19:01:58.566Z,16.73
2018-03-08T19:04:28.346Z,6.40
2018-03-08T19:06:57.179Z,6.63
2018-03-08T19:09:26.441Z,6.03
2018-03-08T19:11:54.919Z,7.00
2018-03-08T19:14:23.154Z,5.77
2018-03-08T19:16:51.395Z,5.33
2018-03-08T19:19:20.188Z,3.43
2018-03-08T19:21:48.648Z,3.87
2018-03-08T19:24:19.717Z,8.27
2018-03-08T19:26:49.036Z,3.40
2018-03-08T19:29:18.471Z,4.70
2018-03-08T19:31:47.353Z,6.77
2018-03-08T19:34:15.951Z,6.17
2018-03-08T19:36:46.752Z,5.17
2018-03-08T19:39:15.533Z,4.80
2018-03-08T19:41:43.922Z,6.47
2018-03-08T19:44:12.269Z,6.80
2018-03-08T19:46:40.746Z,6.57
2018-03-08T19:49:08.876Z,6.33
2018-03-08T19:51:37.399Z,8.07
2018-03-08T19:54:06.159Z,7.17
2018-03-08T19:56:35.253Z,9.10
2018-03-08T19:59:03.973Z,8.43
2018-03-08T20:01:32.764Z,7.60
2018-03-08T20:04:01.781Z,9.17
2018-03-08T20:06:31.922Z,6.07
2018-03-08T20:09:00.573Z,8.30
2018-03-08T20:11:28.827Z,6.80
2018-03-08T20:13:57.976Z,8.03
2018-03-08T20:16:26.724Z,7.33
2018-03-08T20:18:55.081Z,10.57
2018-03-08T20:21:24.176Z,8.10
2018-03-08T20:23:52.920Z,8.57
2018-03-08T20:26:21.556Z,7.33
2018-03-08T20:28:50.682Z,6.30
2018-03-08T20:31:19.565Z,8.00
2018-03-08T20:33:48.929Z,8.63
2018-03-08T20:36:17.623Z,10.97
2018-03-08T20:38:47.307Z,8.90
2018-03-08T20:41:16.382Z,9.13
2018-03-08T20:43:45.156Z,9.20
2018-03-08T20:46:13.671Z,13.60
2018-03-08T20:48:42.006Z,9.43
2018-03-08T20:51:10.589Z,9.60
2018-03-08T20:53:39.382Z,9.83
2018-03-08T20:56:07.800Z,9.70
2018-03-08T20:58:36.981Z,7.43
2018-03-08T21:01:06.159Z,10.87
2018-03-08T21:03:34.863Z,7.70
2018-03-08T21:06:03.728Z,10.43
2018-03-08T21:08:31.996Z,8.23
2018-03-08T21:11:00.261Z,8.10
2018-03-08T21:13:28.416Z,7.63
2018-03-08T21:15:56.624Z,8.67
2018-03-08T21:18:24.836Z,9.70
2018-03-08T21:20:53.630Z,10.70
2018-03-08T21:23:22.005Z,11.80
2018-03-08T21:25:51.169Z,8.07
2018-03-08T21:28:19.353Z,8.27
2018-03-08T21:30:47.698Z,8.00
2018-03-08T21:33:15.833Z,7.07
2018-03-08T21:35:44.133Z,12.03
2018-03-08T21:38:12.968Z,8.87
2018-03-08T21:40:42.570Z,11.40
2018-03-08T21:43:11.663Z,9.47
2018-03-08T21:45:41.016Z,11.07
2018-03-08T21:48:10.315Z,11.57
2018-03-08T21:50:39.322Z,13.30
2018-03-08T21:53:08.923Z,11.97
2018-03-08T21:55:37.830Z,7.27
2018-03-08T21:58:10.502Z,5.87
2018-03-08T22:00:39.041Z,9.63
2018-03-08T22:03:07.283Z,8.07
2018-03-08T22:05:36.079Z,12.33
2018-03-08T22:08:04.169Z,10.20
2018-03-08T22:10:32.282Z,8.50
2018-03-08T22:13:00.395Z,8.33
2018-03-08T22:15:28.563Z,7.97
2018-03-08T22:17:56.706Z,5.17
2018-03-08T22:20:24.885Z,7.03
2018-03-08T22:22:53.005Z,9.93
2018-03-08T22:25:21.109Z,8.57
2018-03-08T22:27:49.225Z,10.93
2018-03-08T22:30:17.382Z,14.03
2018-03-08T22:32:45.468Z,8.53
2018-03-08T22:35:13.572Z,6.70
2018-03-08T22:37:41.691Z,6.97
2018-03-08T22:40:09.787Z,8.33
2018-03-08T22:42:38.113Z,7.67
2018-03-08T22:45:06.269Z,8.43
2018-03-08T22:47:34.471Z,10.27
2018-03-08T22:50:05.973Z,6.77
2018-03-08T22:52:34.083Z,11.33
2018-03-08T22:55:02.215Z,15.77
2018-03-08T22:57:30.319Z,9.10
2018-03-08T22:59:58.449Z,12.70
2018-03-08T23:02:32.099Z,9.03
2018-03-08T23:05:00.214Z,10.40
2018-03-08T23:07:28.377Z,15.57
2018-03-08T23:09:56.546Z,9.43
2018-03-08T23:12:28.461Z,7.67
2018-03-08T23:14:56.559Z,8.43
2018-03-08T23:17:24.744Z,10.90
2018-03-08T23:19:52.860Z,12.20
2018-03-08T23:22:21.137Z,5.50
2018-03-08T23:24:49.281Z,12.77
2018-03-08T23:27:17.426Z,12.07
2018-03-08T23:29:45.521Z,10.83
2018-03-08T23:32:13.639Z,8.13
2018-03-08T23:34:41.775Z,12.47
2018-03-08T23:37:09.868Z,10.97
2018-03-08T23:39:37.984Z,8.00
2018-03-08T23:42:06.113Z,11.00
2018-03-08T23:44:34.243Z,8.37
2018-03-08T23:47:02.387Z,8.97
2018-03-08T23:49:30.515Z,9.90
2018-03-08T23:51:58.661Z,11.80
2018-03-08T23:54:30.019Z,8.53
2018-03-08T23:56:58.117Z,10.77
2018-03-08T23:59:26.391Z,9.73
